sensor_id;sensor_type;location;lat;lon;timestamp;pressure;altitude;pressure_sealevel;temperature;humidity
28701;BME280;15877;52.344;16.790;2024-01-11T00:02:06;101974.95;;;-2.34;64.25
28701;BME280;15877;52.344;16.790;2024-01-11T00:04:39;101971.12;;;-2.39;64.80
28701;BME280;15877;52.344;16.790;2024-01-11T00:07:12;101961.73;;;-2.28;64.38
28701;BME280;15877;52.344;16.790;2024-01-11T00:09:44;101956.58;;;-2.31;64.47
28701;BME280;15877;52.344;16.790;2024-01-11T00:12:16;101953.40;;;-2.39;64.96
28701;BME280;15877;52.344;16.790;2024-01-11T00:14:49;101949.36;;;-2.39;65.26
28701;BME280;15877;52.344;16.790;2024-01-11T00:17:21;101951.35;;;-2.59;65.97
28701;BME280;15877;52.344;16.790;2024-01-11T00:19:53;101943.91;;;-2.53;66.09
28701;BME280;15877;52.344;16.790;2024-01-11T00:22:25;101945.02;;;-2.75;67.15
28701;BME280;15877;52.344;16.790;2024-01-11T00:24:58;101948.73;;;-2.65;67.14
28701;BME280;15877;52.344;16.790;2024-01-11T00:27:30;101940.33;;;-2.68;67.24
28701;BME280;15877;52.344;16.790;2024-01-11T00:30:03;101929.27;;;-2.64;67.08
28701;BME280;15877;52.344;16.790;2024-01-11T00:32:36;101923.59;;;-2.73;67.57
28701;BME280;15877;52.344;16.790;2024-01-11T00:35:09;101907.05;;;-2.64;66.94
28701;BME280;15877;52.344;16.790;2024-01-11T00:37:41;101920.31;;;-2.54;66.77
28701;BME280;15877;52.344;16.790;2024-01-11T00:40:13;101919.80;;;-2.64;66.81
28701;BME280;15877;52.344;16.790;2024-01-11T00:42:46;101894.94;;;-2.69;67.33
28701;BME280;15877;52.344;16.790;2024-01-11T00:45:18;101881.77;;;-2.78;67.53
28701;BME280;15877;52.344;16.790;2024-01-11T00:47:50;101877.95;;;-3.21;68.97
28701;BME280;15877;52.344;16.790;2024-01-11T00:50:22;101869.81;;;-3.11;68.64
28701;BME280;15877;52.344;16.790;2024-01-11T00:52:54;101887.85;;;-2.73;67.50
28701;BME280;15877;52.344;16.790;2024-01-11T00:55:27;101881.23;;;-2.72;66.99
28701;BME280;15877;52.344;16.790;2024-01-11T00:57:59;101867.89;;;-3.01;68.02
28701;BME280;15877;52.344;16.790;2024-01-11T01:00:32;101859.77;;;-2.94;68.00
28701;BME280;15877;52.344;16.790;2024-01-11T01:03:04;101857.83;;;-3.01;68.25
28701;BME280;15877;52.344;16.790;2024-01-11T01:05:37;101871.52;;;-2.92;68.13
28701;BME280;15877;52.344;16.790;2024-01-11T01:08:10;101873.83;;;-2.82;67.88
28701;BME280;15877;52.344;16.790;2024-01-11T01:10:42;101882.89;;;-2.96;68.28
28701;BME280;15877;52.344;16.790;2024-01-11T01:13:14;101890.52;;;-2.72;67.51
28701;BME280;15877;52.344;16.790;2024-01-11T01:15:46;101883.77;;;-2.62;66.96
28701;BME280;15877;52.344;16.790;2024-01-11T01:18:19;101882.02;;;-2.66;66.97
28701;BME280;15877;52.344;16.790;2024-01-11T01:20:51;101878.18;;;-2.90;67.64
28701;BME280;15877;52.344;16.790;2024-01-11T01:23:23;101877.05;;;-3.09;68.22
28701;BME280;15877;52.344;16.790;2024-01-11T01:25:55;101872.33;;;-3.22;68.47
28701;BME280;15877;52.344;16.790;2024-01-11T01:28:27;101877.13;;;-3.26;68.72
28701;BME280;15877;52.344;16.790;2024-01-11T01:30:59;101877.91;;;-3.23;68.64
28701;BME280;15877;52.344;16.790;2024-01-11T01:33:32;101870.91;;;-3.09;68.01
28701;BME280;15877;52.344;16.790;2024-01-11T01:36:07;101866.48;;;-3.16;67.87
28701;BME280;15877;52.344;16.790;2024-01-11T01:38:39;101864.79;;;-3.45;68.41
28701;BME280;15877;52.344;16.790;2024-01-11T01:41:12;101872.36;;;-2.97;67.50
28701;BME280;15877;52.344;16.790;2024-01-11T01:43:44;101876.52;;;-2.63;65.74
28701;BME280;15877;52.344;16.790;2024-01-11T01:46:21;101884.16;;;-2.53;65.11
28701;BME280;15877;52.344;16.790;2024-01-11T01:48:56;101874.89;;;-2.54;64.90
28701;BME280;15877;52.344;16.790;2024-01-11T01:51:30;101879.54;;;-2.59;65.01
28701;BME280;15877;52.344;16.790;2024-01-11T01:54:04;101871.46;;;-2.54;64.62
28701;BME280;15877;52.344;16.790;2024-01-11T01:56:37;101846.70;;;-2.74;64.63
28701;BME280;15877;52.344;16.790;2024-01-11T01:59:09;101881.56;;;-2.49;64.56
28701;BME280;15877;52.344;16.790;2024-01-11T02:01:42;101887.30;;;-2.39;63.99
28701;BME280;15877;52.344;16.790;2024-01-11T02:04:15;101884.36;;;-2.51;64.25
28701;BME280;15877;52.344;16.790;2024-01-11T02:06:47;101876.00;;;-2.61;64.58
28701;BME280;15877;52.344;16.790;2024-01-11T02:09:20;101859.66;;;-2.68;64.71
28701;BME280;15877;52.344;16.790;2024-01-11T02:11:52;101859.35;;;-2.63;64.84
28701;BME280;15877;52.344;16.790;2024-01-11T02:14:25;101859.86;;;-2.60;64.86
28701;BME280;15877;52.344;16.790;2024-01-11T02:16:58;101881.68;;;-2.60;64.77
28701;BME280;15877;52.344;16.790;2024-01-11T02:19:31;101874.45;;;-2.60;65.05
28701;BME280;15877;52.344;16.790;2024-01-11T02:22:08;101876.27;;;-2.64;65.07
28701;BME280;15877;52.344;16.790;2024-01-11T02:24:44;101886.73;;;-2.58;65.19
28701;BME280;15877;52.344;16.790;2024-01-11T02:27:16;101897.35;;;-2.61;65.39
28701;BME280;15877;52.344;16.790;2024-01-11T02:29:49;101881.49;;;-2.75;66.24
28701;BME280;15877;52.344;16.790;2024-01-11T02:32:21;101888.10;;;-3.09;67.58
28701;BME280;15877;52.344;16.790;2024-01-11T02:34:53;101898.21;;;-3.33;69.18
28701;BME280;15877;52.344;16.790;2024-01-11T02:37:26;101899.06;;;-3.25;69.44
28701;BME280;15877;52.344;16.790;2024-01-11T02:39:59;101898.47;;;-3.24;69.53
28701;BME280;15877;52.344;16.790;2024-01-11T02:42:32;101894.00;;;-3.27;69.94
28701;BME280;15877;52.344;16.790;2024-01-11T02:45:04;101895.28;;;-3.26;70.25
28701;BME280;15877;52.344;16.790;2024-01-11T02:47:37;101886.83;;;-3.30;70.32
28701;BME280;15877;52.344;16.790;2024-01-11T02:50:10;101875.61;;;-3.09;69.96
28701;BME280;15877;52.344;16.790;2024-01-11T02:52:43;101871.52;;;-3.06;70.13
28701;BME280;15877;52.344;16.790;2024-01-11T02:55:16;101857.35;;;-3.03;70.07
28701;BME280;15877;52.344;16.790;2024-01-11T02:57:48;101842.85;;;-3.32;71.46
28701;BME280;15877;52.344;16.790;2024-01-11T03:00:20;101847.44;;;-3.09;70.88
28701;BME280;15877;52.344;16.790;2024-01-11T03:02:52;101841.84;;;-2.91;70.30
28701;BME280;15877;52.344;16.790;2024-01-11T03:05:24;101841.84;;;-3.01;70.78
28701;BME280;15877;52.344;16.790;2024-01-11T03:07:57;101854.42;;;-2.90;70.57
28701;BME280;15877;52.344;16.790;2024-01-11T03:10:29;101860.77;;;-2.82;70.39
28701;BME280;15877;52.344;16.790;2024-01-11T03:13:02;101862.38;;;-2.87;70.57
28701;BME280;15877;52.344;16.790;2024-01-11T03:15:34;101859.52;;;-2.90;71.10
28701;BME280;15877;52.344;16.790;2024-01-11T03:18:06;101854.77;;;-3.06;71.61
28701;BME280;15877;52.344;16.790;2024-01-11T03:20:39;101850.14;;;-3.29;73.23
28701;BME280;15877;52.344;16.790;2024-01-11T03:23:12;101842.98;;;-3.48;74.27
28701;BME280;15877;52.344;16.790;2024-01-11T03:25:44;101849.88;;;-3.46;74.88
28701;BME280;15877;52.344;16.790;2024-01-11T03:28:17;101839.08;;;-3.38;74.64
28701;BME280;15877;52.344;16.790;2024-01-11T03:30:49;101858.13;;;-3.12;73.73
28701;BME280;15877;52.344;16.790;2024-01-11T03:33:23;101851.85;;;-2.93;72.97
28701;BME280;15877;52.344;16.790;2024-01-11T03:35:56;101848.61;;;-2.92;72.98
28701;BME280;15877;52.344;16.790;2024-01-11T03:38:28;101841.34;;;-2.89;73.21
28701;BME280;15877;52.344;16.790;2024-01-11T03:41:00;101837.98;;;-2.85;73.10
28701;BME280;15877;52.344;16.790;2024-01-11T03:43:32;101837.39;;;-3.08;74.36
28701;BME280;15877;52.344;16.790;2024-01-11T03:46:04;101835.33;;;-3.18;75.57
28701;BME280;15877;52.344;16.790;2024-01-11T03:48:37;101822.46;;;-3.02;75.27
28701;BME280;15877;52.344;16.790;2024-01-11T03:51:09;101823.91;;;-2.79;74.49
28701;BME280;15877;52.344;16.790;2024-01-11T03:53:41;101820.37;;;-2.68;74.22
28701;BME280;15877;52.344;16.790;2024-01-11T03:56:14;101821.19;;;-2.62;74.03
28701;BME280;15877;52.344;16.790;2024-01-11T03:58:46;101815.77;;;-2.64;74.44
28701;BME280;15877;52.344;16.790;2024-01-11T04:01:18;101802.33;;;-2.73;75.10
28701;BME280;15877;52.344;16.790;2024-01-11T04:03:50;101793.34;;;-2.79;75.77
28701;BME280;15877;52.344;16.790;2024-01-11T04:06:24;101797.58;;;-2.71;75.92
28701;BME280;15877;52.344;16.790;2024-01-11T04:08:56;101797.89;;;-2.69;76.12
28701;BME280;15877;52.344;16.790;2024-01-11T04:11:30;101795.14;;;-2.79;77.04
28701;BME280;15877;52.344;16.790;2024-01-11T04:14:02;101807.45;;;-2.66;76.92
28701;BME280;15877;52.344;16.790;2024-01-11T04:16:34;101806.20;;;-2.61;76.78
28701;BME280;15877;52.344;16.790;2024-01-11T04:19:11;101812.21;;;-2.62;76.98
28701;BME280;15877;52.344;16.790;2024-01-11T04:21:43;101821.43;;;-2.55;77.30
28701;BME280;15877;52.344;16.790;2024-01-11T04:24:16;101818.84;;;-2.36;76.47
28701;BME280;15877;52.344;16.790;2024-01-11T04:26:48;101803.52;;;-2.31;76.17
28701;BME280;15877;52.344;16.790;2024-01-11T04:29:20;101799.64;;;-2.26;76.14
28701;BME280;15877;52.344;16.790;2024-01-11T04:31:52;101793.38;;;-2.35;76.99
28701;BME280;15877;52.344;16.790;2024-01-11T04:34:24;101780.43;;;-2.22;76.35
28701;BME280;15877;52.344;16.790;2024-01-11T04:36:57;101763.36;;;-2.39;77.57
28701;BME280;15877;52.344;16.790;2024-01-11T04:39:29;101758.86;;;-2.28;77.46
28701;BME280;15877;52.344;16.790;2024-01-11T04:42:03;101751.15;;;-2.34;77.94
28701;BME280;15877;52.344;16.790;2024-01-11T04:44:35;101738.08;;;-2.35;78.69
28701;BME280;15877;52.344;16.790;2024-01-11T04:47:08;101734.53;;;-2.15;77.90
28701;BME280;15877;52.344;16.790;2024-01-11T04:49:40;101730.31;;;-2.27;78.43
28701;BME280;15877;52.344;16.790;2024-01-11T04:52:12;101715.02;;;-2.66;80.91
28701;BME280;15877;52.344;16.790;2024-01-11T04:54:46;101713.73;;;-2.36;80.58
28701;BME280;15877;52.344;16.790;2024-01-11T04:57:19;101718.80;;;-2.19;79.40
28701;BME280;15877;52.344;16.790;2024-01-11T04:59:51;101719.78;;;-2.15;79.67
28701;BME280;15877;52.344;16.790;2024-01-11T05:02:24;101724.52;;;-1.93;78.87
28701;BME280;15877;52.344;16.790;2024-01-11T05:04:56;101725.70;;;-2.05;79.38
28701;BME280;15877;52.344;16.790;2024-01-11T05:07:29;101716.52;;;-2.25;80.82
28701;BME280;15877;52.344;16.790;2024-01-11T05:10:02;101705.76;;;-2.02;80.46
28701;BME280;15877;52.344;16.790;2024-01-11T05:12:34;101699.18;;;-1.98;80.39
28701;BME280;15877;52.344;16.790;2024-01-11T05:15:09;101699.45;;;-1.86;80.09
28701;BME280;15877;52.344;16.790;2024-01-11T05:17:41;101692.69;;;-1.92;80.70
28701;BME280;15877;52.344;16.790;2024-01-11T05:20:14;101685.56;;;-1.74;80.08
28701;BME280;15877;52.344;16.790;2024-01-11T05:22:46;101687.23;;;-1.88;80.78
28701;BME280;15877;52.344;16.790;2024-01-11T05:25:19;101673.08;;;-1.92;81.57
28701;BME280;15877;52.344;16.790;2024-01-11T05:27:51;101667.20;;;-1.99;82.23
28701;BME280;15877;52.344;16.790;2024-01-11T05:30:23;101672.21;;;-1.91;82.03
28701;BME280;15877;52.344;16.790;2024-01-11T05:32:59;101685.46;;;-2.06;83.21
28701;BME280;15877;52.344;16.790;2024-01-11T05:35:32;101675.50;;;-1.85;82.59
28701;BME280;15877;52.344;16.790;2024-01-11T05:38:04;101672.14;;;-1.69;81.72
28701;BME280;15877;52.344;16.790;2024-01-11T05:40:36;101676.83;;;-1.84;82.89
28701;BME280;15877;52.344;16.790;2024-01-11T05:43:09;101684.06;;;-1.68;82.43
28701;BME280;15877;52.344;16.790;2024-01-11T05:45:41;101681.83;;;-1.52;81.61
28701;BME280;15877;52.344;16.790;2024-01-11T05:48:18;101684.21;;;-1.49;81.47
28701;BME280;15877;52.344;16.790;2024-01-11T05:50:50;101680.91;;;-1.42;81.47
28701;BME280;15877;52.344;16.790;2024-01-11T05:53:23;101669.59;;;-1.71;82.54
28701;BME280;15877;52.344;16.790;2024-01-11T05:55:56;101667.58;;;-1.40;81.63
28701;BME280;15877;52.344;16.790;2024-01-11T05:58:28;101670.10;;;-1.43;81.35
28701;BME280;15877;52.344;16.790;2024-01-11T06:01:00;101665.46;;;-1.44;81.90
28701;BME280;15877;52.344;16.790;2024-01-11T06:03:32;101664.48;;;-1.48;82.01
28701;BME280;15877;52.344;16.790;2024-01-11T06:06:06;101668.59;;;-1.78;83.60
28701;BME280;15877;52.344;16.790;2024-01-11T06:08:40;101673.80;;;-1.54;83.15
28701;BME280;15877;52.344;16.790;2024-01-11T06:11:13;101666.30;;;-1.42;82.11
28701;BME280;15877;52.344;16.790;2024-01-11T06:13:45;101667.78;;;-1.50;82.45
28701;BME280;15877;52.344;16.790;2024-01-11T06:16:18;101657.48;;;-1.41;82.49
28701;BME280;15877;52.344;16.790;2024-01-11T06:18:51;101649.53;;;-1.30;81.62
28701;BME280;15877;52.344;16.790;2024-01-11T06:21:23;101656.79;;;-1.49;82.43
28701;BME280;15877;52.344;16.790;2024-01-11T06:23:55;101646.16;;;-1.48;82.42
28701;BME280;15877;52.344;16.790;2024-01-11T06:26:27;101643.42;;;-1.40;82.30
28701;BME280;15877;52.344;16.790;2024-01-11T06:29:00;101612.36;;;-1.73;82.77
28701;BME280;15877;52.344;16.790;2024-01-11T06:31:32;101631.63;;;-1.47;82.86
28701;BME280;15877;52.344;16.790;2024-01-11T06:34:04;101634.27;;;-1.30;81.50
28701;BME280;15877;52.344;16.790;2024-01-11T06:36:36;101631.19;;;-1.37;81.64
28701;BME280;15877;52.344;16.790;2024-01-11T06:39:08;101624.46;;;-1.45;81.91
28701;BME280;15877;52.344;16.790;2024-01-11T06:41:41;101625.23;;;-1.49;82.17
28701;BME280;15877;52.344;16.790;2024-01-11T06:44:13;101626.95;;;-1.36;81.61
28701;BME280;15877;52.344;16.790;2024-01-11T06:46:45;101608.02;;;-1.54;81.44
28701;BME280;15877;52.344;16.790;2024-01-11T06:49:17;101627.48;;;-1.37;81.08
28701;BME280;15877;52.344;16.790;2024-01-11T06:51:50;101613.88;;;-1.35;81.24
28701;BME280;15877;52.344;16.790;2024-01-11T06:54:22;101632.45;;;-1.33;80.91
28701;BME280;15877;52.344;16.790;2024-01-11T06:56:54;101631.46;;;-1.32;81.04
28701;BME280;15877;52.344;16.790;2024-01-11T06:59:26;101629.69;;;-1.54;81.92
28701;BME280;15877;52.344;16.790;2024-01-11T07:01:58;101635.78;;;-1.46;82.08
28701;BME280;15877;52.344;16.790;2024-01-11T07:04:31;101630.47;;;-1.23;80.91
28701;BME280;15877;52.344;16.790;2024-01-11T07:07:04;101625.15;;;-1.36;81.50
28701;BME280;15877;52.344;16.790;2024-01-11T07:09:37;101613.61;;;-1.29;81.20
28701;BME280;15877;52.344;16.790;2024-01-11T07:12:10;101618.08;;;-1.40;81.71
28701;BME280;15877;52.344;16.790;2024-01-11T07:14:43;101609.24;;;-1.55;82.62
28701;BME280;15877;52.344;16.790;2024-01-11T07:17:15;101619.95;;;-1.62;83.47
28701;BME280;15877;52.344;16.790;2024-01-11T07:19:48;101615.05;;;-1.72;83.94
28701;BME280;15877;52.344;16.790;2024-01-11T07:22:20;101619.46;;;-1.46;83.40
28701;BME280;15877;52.344;16.790;2024-01-11T07:24:53;101615.71;;;-1.37;83.04
28701;BME280;15877;52.344;16.790;2024-01-11T07:27:25;101613.27;;;-1.32;82.58
28701;BME280;15877;52.344;16.790;2024-01-11T07:29:57;101615.88;;;-1.36;82.85
28701;BME280;15877;52.344;16.790;2024-01-11T07:32:29;101612.10;;;-1.21;82.18
28701;BME280;15877;52.344;16.790;2024-01-11T07:35:01;101604.48;;;-1.35;82.61
28701;BME280;15877;52.344;16.790;2024-01-11T07:37:38;101599.02;;;-1.22;82.79
28701;BME280;15877;52.344;16.790;2024-01-11T07:40:11;101594.86;;;-1.23;82.76
28701;BME280;15877;52.344;16.790;2024-01-11T07:42:44;101595.69;;;-1.23;83.17
28701;BME280;15877;52.344;16.790;2024-01-11T07:45:17;101596.54;;;-1.13;83.11
28701;BME280;15877;52.344;16.790;2024-01-11T07:47:50;101600.84;;;-0.96;82.34
28701;BME280;15877;52.344;16.790;2024-01-11T07:50:22;101615.23;;;-0.92;82.15
28701;BME280;15877;52.344;16.790;2024-01-11T07:52:54;101623.56;;;-0.94;82.31
28701;BME280;15877;52.344;16.790;2024-01-11T07:55:27;101632.02;;;-0.93;82.35
28701;BME280;15877;52.344;16.790;2024-01-11T07:57:59;101638.73;;;-0.94;82.83
28701;BME280;15877;52.344;16.790;2024-01-11T08:00:31;101634.58;;;-0.88;82.12
28701;BME280;15877;52.344;16.790;2024-01-11T08:03:03;101634.10;;;-0.92;82.58
28701;BME280;15877;52.344;16.790;2024-01-11T08:05:36;101611.06;;;-1.05;83.31
28701;BME280;15877;52.344;16.790;2024-01-11T08:08:08;101625.42;;;-0.86;83.44
28701;BME280;15877;52.344;16.790;2024-01-11T08:10:41;101617.25;;;-0.78;83.17
28701;BME280;15877;52.344;16.790;2024-01-11T08:13:14;101624.62;;;-0.85;83.74
28701;BME280;15877;52.344;16.790;2024-01-11T08:15:49;101624.85;;;-0.70;83.34
28701;BME280;15877;52.344;16.790;2024-01-11T08:18:21;101621.93;;;-0.59;83.01
28701;BME280;15877;52.344;16.790;2024-01-11T08:20:53;101626.91;;;-0.59;83.08
28701;BME280;15877;52.344;16.790;2024-01-11T08:23:25;101615.91;;;-0.70;83.67
28701;BME280;15877;52.344;16.790;2024-01-11T08:25:57;101622.55;;;-0.77;84.91
28701;BME280;15877;52.344;16.790;2024-01-11T08:28:29;101619.64;;;-0.60;84.56
28701;BME280;15877;52.344;16.790;2024-01-11T08:31:03;101624.25;;;-0.71;84.92
28701;BME280;15877;52.344;16.790;2024-01-11T08:33:36;101612.92;;;-0.68;85.52
28701;BME280;15877;52.344;16.790;2024-01-11T08:36:09;101611.03;;;-0.57;85.29
28701;BME280;15877;52.344;16.790;2024-01-11T08:38:42;101596.69;;;-0.49;85.11
28701;BME280;15877;52.344;16.790;2024-01-11T08:41:15;101591.23;;;-0.41;84.74
28701;BME280;15877;52.344;16.790;2024-01-11T08:43:47;101588.14;;;-0.61;86.41
28701;BME280;15877;52.344;16.790;2024-01-11T08:46:25;101584.45;;;-0.43;86.16
28701;BME280;15877;52.344;16.790;2024-01-11T08:48:58;101588.63;;;-0.28;85.26
28701;BME280;15877;52.344;16.790;2024-01-11T08:51:30;101599.73;;;-0.42;86.14
28701;BME280;15877;52.344;16.790;2024-01-11T08:54:03;101609.76;;;-0.27;85.97
28701;BME280;15877;52.344;16.790;2024-01-11T08:56:39;101604.54;;;-0.25;86.28
28701;BME280;15877;52.344;16.790;2024-01-11T08:59:12;101598.90;;;-0.25;86.25
28701;BME280;15877;52.344;16.790;2024-01-11T09:01:44;101596.44;;;-0.28;87.18
28701;BME280;15877;52.344;16.790;2024-01-11T09:04:32;101600.29;;;-0.25;87.30
28701;BME280;15877;52.344;16.790;2024-01-11T09:07:05;101603.43;;;-0.43;88.70
28701;BME280;15877;52.344;16.790;2024-01-11T09:09:37;101606.98;;;-0.28;88.53
28701;BME280;15877;52.344;16.790;2024-01-11T09:12:21;101614.79;;;-0.27;88.81
28701;BME280;15877;52.344;16.790;2024-01-11T09:14:54;101624.70;;;-0.24;89.07
28701;BME280;15877;52.344;16.790;2024-01-11T09:17:26;101613.70;;;-0.19;88.65
28701;BME280;15877;52.344;16.790;2024-01-11T09:19:58;101621.73;;;0.00;88.04
28701;BME280;15877;52.344;16.790;2024-01-11T09:22:31;101613.48;;;-0.18;88.83
28701;BME280;15877;52.344;16.790;2024-01-11T09:25:04;101624.15;;;-0.05;89.18
28701;BME280;15877;52.344;16.790;2024-01-11T09:27:38;101619.77;;;-0.07;89.17
28701;BME280;15877;52.344;16.790;2024-01-11T09:30:11;101613.80;;;-0.07;89.33
28701;BME280;15877;52.344;16.790;2024-01-11T09:32:43;101630.40;;;0.09;88.94
28701;BME280;15877;52.344;16.790;2024-01-11T09:35:16;101626.12;;;0.06;89.18
28701;BME280;15877;52.344;16.790;2024-01-11T09:37:49;101619.36;;;-0.14;90.47
28701;BME280;15877;52.344;16.790;2024-01-11T09:40:21;101612.21;;;-0.11;91.09
28701;BME280;15877;52.344;16.790;2024-01-11T09:42:53;101614.87;;;-0.12;91.49
28701;BME280;15877;52.344;16.790;2024-01-11T09:45:25;101618.91;;;-0.04;91.50
28701;BME280;15877;52.344;16.790;2024-01-11T09:47:58;101625.98;;;-0.10;91.98
28701;BME280;15877;52.344;16.790;2024-01-11T09:50:32;101626.31;;;-0.09;92.49
28701;BME280;15877;52.344;16.790;2024-01-11T09:53:06;101622.89;;;0.05;91.94
28701;BME280;15877;52.344;16.790;2024-01-11T09:55:37;101619.14;;;-0.02;92.25
28701;BME280;15877;52.344;16.790;2024-01-11T09:58:10;101616.13;;;-0.05;92.70
28701;BME280;15877;52.344;16.790;2024-01-11T10:00:43;101609.77;;;0.01;92.81
28701;BME280;15877;52.344;16.790;2024-01-11T10:03:17;101604.14;;;0.04;92.63
28701;BME280;15877;52.344;16.790;2024-01-11T10:05:52;101600.84;;;-0.01;93.25
28701;BME280;15877;52.344;16.790;2024-01-11T10:08:27;101605.63;;;0.17;92.73
28701;BME280;15877;52.344;16.790;2024-01-11T10:11:01;101598.11;;;0.22;92.21
28701;BME280;15877;52.344;16.790;2024-01-11T10:13:34;101592.77;;;0.29;92.01
28701;BME280;15877;52.344;16.790;2024-01-11T10:16:09;101596.58;;;0.40;91.37
28701;BME280;15877;52.344;16.790;2024-01-11T10:18:44;101595.27;;;0.36;91.43
28701;BME280;15877;52.344;16.790;2024-01-11T10:21:17;101599.18;;;0.34;91.70
28701;BME280;15877;52.344;16.790;2024-01-11T10:23:50;101594.53;;;0.33;91.93
28701;BME280;15877;52.344;16.790;2024-01-11T10:26:22;101591.51;;;0.28;92.49
28701;BME280;15877;52.344;16.790;2024-01-11T10:29:00;101580.95;;;0.44;92.18
28701;BME280;15877;52.344;16.790;2024-01-11T10:31:34;101583.07;;;0.35;92.36
28701;BME280;15877;52.344;16.790;2024-01-11T10:34:07;101587.11;;;0.23;93.31
28701;BME280;15877;52.344;16.790;2024-01-11T10:36:39;101585.27;;;0.27;93.84
28701;BME280;15877;52.344;16.790;2024-01-11T10:39:13;101591.75;;;0.31;93.92
28701;BME280;15877;52.344;16.790;2024-01-11T10:41:53;101590.08;;;0.25;94.46
28701;BME280;15877;52.344;16.790;2024-01-11T10:44:34;101582.83;;;0.31;94.60
28701;BME280;15877;52.344;16.790;2024-01-11T10:47:09;101573.25;;;0.42;94.07
28701;BME280;15877;52.344;16.790;2024-01-11T10:49:43;101568.55;;;0.27;95.00
28701;BME280;15877;52.344;16.790;2024-01-11T10:52:18;101552.61;;;0.33;95.33
28701;BME280;15877;52.344;16.790;2024-01-11T10:54:53;101543.23;;;0.43;95.04
28701;BME280;15877;52.344;16.790;2024-01-11T10:57:26;101534.27;;;0.44;94.92
28701;BME280;15877;52.344;16.790;2024-01-11T11:00:00;101542.10;;;0.49;94.71
28701;BME280;15877;52.344;16.790;2024-01-11T11:02:35;101545.64;;;0.46;95.06
28701;BME280;15877;52.344;16.790;2024-01-11T11:05:09;101553.71;;;0.60;94.52
28701;BME280;15877;52.344;16.790;2024-01-11T11:07:43;101564.09;;;0.53;94.56
28701;BME280;15877;52.344;16.790;2024-01-11T11:10:17;101556.49;;;0.57;94.52
28701;BME280;15877;52.344;16.790;2024-01-11T11:12:50;101537.92;;;0.43;94.98
28701;BME280;15877;52.344;16.790;2024-01-11T11:15:24;101544.95;;;0.29;96.03
28701;BME280;15877;52.344;16.790;2024-01-11T11:17:58;101565.17;;;0.48;95.80
28701;BME280;15877;52.344;16.790;2024-01-11T11:20:55;101560.02;;;0.48;96.28
28701;BME280;15877;52.344;16.790;2024-01-11T11:23:28;101561.66;;;0.49;96.19
28701;BME280;15877;52.344;16.790;2024-01-11T11:26:01;101564.36;;;0.56;96.01
28701;BME280;15877;52.344;16.790;2024-01-11T11:28:33;101565.39;;;0.53;96.23
28701;BME280;15877;52.344;16.790;2024-01-11T11:31:07;101565.80;;;0.66;95.60
28701;BME280;15877;52.344;16.790;2024-01-11T11:33:40;101565.40;;;0.54;95.94
28701;BME280;15877;52.344;16.790;2024-01-11T11:36:14;101563.58;;;0.48;96.49
28701;BME280;15877;52.344;16.790;2024-01-11T11:38:49;101561.21;;;0.62;96.29
28701;BME280;15877;52.344;16.790;2024-01-11T11:41:33;101561.33;;;0.67;96.00
28701;BME280;15877;52.344;16.790;2024-01-11T11:44:08;101561.87;;;0.66;96.08
28701;BME280;15877;52.344;16.790;2024-01-11T11:46:44;101561.11;;;0.74;95.67
28701;BME280;15877;52.344;16.790;2024-01-11T11:49:20;101550.61;;;0.74;95.41
28701;BME280;15877;52.344;16.790;2024-01-11T11:51:54;101547.02;;;0.79;95.35
28701;BME280;15877;52.344;16.790;2024-01-11T11:54:28;101540.61;;;0.81;95.21
28701;BME280;15877;52.344;16.790;2024-01-11T11:57:01;101539.52;;;0.89;94.61
28701;BME280;15877;52.344;16.790;2024-01-11T11:59:34;101538.69;;;0.80;95.02
28701;BME280;15877;52.344;16.790;2024-01-11T12:02:08;101537.65;;;0.91;94.87
28701;BME280;15877;52.344;16.790;2024-01-11T12:04:49;101530.16;;;1.00;94.28
28701;BME280;15877;52.344;16.790;2024-01-11T12:07:21;101525.99;;;1.04;93.93
28701;BME280;15877;52.344;16.790;2024-01-11T12:09:54;101521.19;;;1.00;93.94
28701;BME280;15877;52.344;16.790;2024-01-11T12:12:26;101529.83;;;1.12;93.55
28701;BME280;15877;52.344;16.790;2024-01-11T12:15:00;101520.36;;;1.11;93.52
28701;BME280;15877;52.344;16.790;2024-01-11T12:17:32;101518.16;;;1.12;93.24
28701;BME280;15877;52.344;16.790;2024-01-11T12:20:08;101517.67;;;1.09;93.59
28701;BME280;15877;52.344;16.790;2024-01-11T12:22:40;101525.02;;;1.06;93.74
28701;BME280;15877;52.344;16.790;2024-01-11T12:25:12;101516.75;;;1.04;93.58
28701;BME280;15877;52.344;16.790;2024-01-11T12:27:46;101529.55;;;1.19;93.33
28701;BME280;15877;52.344;16.790;2024-01-11T12:30:21;101535.25;;;1.22;93.11
28701;BME280;15877;52.344;16.790;2024-01-11T12:32:54;101528.11;;;1.27;92.87
28701;BME280;15877;52.344;16.790;2024-01-11T12:35:28;101526.09;;;1.25;92.70
28701;BME280;15877;52.344;16.790;2024-01-11T12:38:05;101522.42;;;1.25;92.67
28701;BME280;15877;52.344;16.790;2024-01-11T12:40:40;101515.98;;;1.21;93.06
28701;BME280;15877;52.344;16.790;2024-01-11T12:43:12;101518.05;;;1.24;93.05
28701;BME280;15877;52.344;16.790;2024-01-11T12:45:45;101517.77;;;1.19;93.11
28701;BME280;15877;52.344;16.790;2024-01-11T12:48:18;101520.48;;;1.14;93.70
28701;BME280;15877;52.344;16.790;2024-01-11T12:50:50;101523.54;;;1.10;94.15
28701;BME280;15877;52.344;16.790;2024-01-11T12:53:46;101527.08;;;1.24;93.85
28701;BME280;15877;52.344;16.790;2024-01-11T12:56:19;101526.75;;;1.21;93.85
28701;BME280;15877;52.344;16.790;2024-01-11T12:59:06;101531.72;;;1.32;93.62
28701;BME280;15877;52.344;16.790;2024-01-11T13:01:38;101527.57;;;1.29;94.16
28701;BME280;15877;52.344;16.790;2024-01-11T13:04:11;101526.56;;;1.43;93.99
28701;BME280;15877;52.344;16.790;2024-01-11T13:06:43;101524.92;;;1.34;94.53
28701;BME280;15877;52.344;16.790;2024-01-11T13:09:15;101526.82;;;1.21;95.71
28701;BME280;15877;52.344;16.790;2024-01-11T13:11:49;101535.30;;;1.22;96.34
28701;BME280;15877;52.344;16.790;2024-01-11T13:14:22;101525.55;;;1.20;97.03